sensor_id;sensor_type;location;lat;lon;timestamp;P1;P2;P0
64627;PMS5003;59036;50.960;0.314;2022-09-09T00:00:24;5;4;
64627;PMS5003;59036;50.960;0.314;2022-09-09T00:02:57;7;6;
64627;PMS5003;59036;50.960;0.314;2022-09-09T00:05:32;4;4;
64627;PMS5003;59036;50.960;0.314;2022-09-09T00:08:08;5;4;
64627;PMS5003;59036;50.960;0.314;2022-09-09T00:10:45;8;6;
64627;PMS5003;59036;50.960;0.314;2022-09-09T00:13:21;4;4;
64627;PMS5003;59036;50.960;0.314;2022-09-09T00:15:57;5;5;
64627;PMS5003;59036;50.960;0.314;2022-09-09T00:18:28;2;2;
64627;PMS5003;59036;50.960;0.314;2022-09-09T00:21:06;3;3;
64627;PMS5003;59036;50.960;0.314;2022-09-09T00:23:38;7;7;
64627;PMS5003;59036;50.960;0.314;2022-09-09T00:26:08;10;8;
64627;PMS5003;59036;50.960;0.314;2022-09-09T00:28:41;5;5;
64627;PMS5003;59036;50.960;0.314;2022-09-09T00:31:18;2;2;
64627;PMS5003;59036;50.960;0.314;2022-09-09T00:33:51;3;3;
64627;PMS5003;59036;50.960;0.314;2022-09-09T00:36:22;3;2;
64627;PMS5003;59036;50.960;0.314;2022-09-09T00:38:55;3;3;
64627;PMS5003;59036;50.960;0.314;2022-09-09T00:41:29;2;2;
64627;PMS5003;59036;50.960;0.314;2022-09-09T00:44:10;2;2;
64627;PMS5003;59036;50.960;0.314;2022-09-09T00:46:50;4;3;
64627;PMS5003;59036;50.960;0.314;2022-09-09T00:49:30;0;0;
64627;PMS5003;59036;50.960;0.314;2022-09-09T00:52:13;4;3;
64627;PMS5003;59036;50.960;0.314;2022-09-09T00:54:51;3;2;
64627;PMS5003;59036;50.960;0.314;2022-09-09T00:57:28;3;3;
64627;PMS5003;59036;50.960;0.314;2022-09-09T00:59:58;5;4;
64627;PMS5003;59036;50.960;0.314;2022-09-09T01:02:44;2;2;
64627;PMS5003;59036;50.960;0.314;2022-09-09T01:05:24;2;2;
64627;PMS5003;59036;50.960;0.314;2022-09-09T01:08:01;3;2;
64627;PMS5003;59036;50.960;0.314;2022-09-09T01:10:36;4;3;
64627;PMS5003;59036;50.960;0.314;2022-09-09T01:13:11;0;0;
64627;PMS5003;59036;50.960;0.314;2022-09-09T01:15:45;3;2;
64627;PMS5003;59036;50.960;0.314;2022-09-09T01:18:15;2;1;
64627;PMS5003;59036;50.960;0.314;2022-09-09T01:20:45;2;2;
64627;PMS5003;59036;50.960;0.314;2022-09-09T01:23:25;2;2;
64627;PMS5003;59036;50.960;0.314;2022-09-09T01:26:07;1;1;
64627;PMS5003;59036;50.960;0.314;2022-09-09T01:28:42;0;0;
64627;PMS5003;59036;50.960;0.314;2022-09-09T01:31:11;2;1;
64627;PMS5003;59036;50.960;0.314;2022-09-09T01:33:43;3;2;
64627;PMS5003;59036;50.960;0.314;2022-09-09T01:36:10;2;2;
64627;PMS5003;59036;50.960;0.314;2022-09-09T01:38:42;2;2;
64627;PMS5003;59036;50.960;0.314;2022-09-09T01:41:10;3;3;
64627;PMS5003;59036;50.960;0.314;2022-09-09T01:43:37;4;4;
64627;PMS5003;59036;50.960;0.314;2022-09-09T01:46:04;3;3;
64627;PMS5003;59036;50.960;0.314;2022-09-09T01:48:31;1;1;
64627;PMS5003;59036;50.960;0.314;2022-09-09T01:50:59;2;2;
64627;PMS5003;59036;50.960;0.314;2022-09-09T01:53:26;2;2;
64627;PMS5003;59036;50.960;0.314;2022-09-09T01:55:57;3;3;
64627;PMS5003;59036;50.960;0.314;2022-09-09T01:58:34;3;3;
64627;PMS5003;59036;50.960;0.314;2022-09-09T02:01:12;3;3;
64627;PMS5003;59036;50.960;0.314;2022-09-09T02:03:50;2;2;
64627;PMS5003;59036;50.960;0.314;2022-09-09T02:06:23;3;3;
64627;PMS5003;59036;50.960;0.314;2022-09-09T02:08:55;3;3;
64627;PMS5003;59036;50.960;0.314;2022-09-09T02:11:24;3;1;
64627;PMS5003;59036;50.960;0.314;2022-09-09T02:13:55;3;2;
64627;PMS5003;59036;50.960;0.314;2022-09-09T02:16:27;5;2;
64627;PMS5003;59036;50.960;0.314;2022-09-09T02:19:01;4;4;
64627;PMS5003;59036;50.960;0.314;2022-09-09T02:21:33;3;3;
64627;PMS5003;59036;50.960;0.314;2022-09-09T02:24:03;3;2;
64627;PMS5003;59036;50.960;0.314;2022-09-09T02:26:33;4;4;
64627;PMS5003;59036;50.960;0.314;2022-09-09T02:29:03;3;3;
64627;PMS5003;59036;50.960;0.314;2022-09-09T02:31:34;3;2;
64627;PMS5003;59036;50.960;0.314;2022-09-09T02:34:04;3;3;
64627;PMS5003;59036;50.960;0.314;2022-09-09T02:36:34;4;3;
64627;PMS5003;59036;50.960;0.314;2022-09-09T02:39:03;4;4;
64627;PMS5003;59036;50.960;0.314;2022-09-09T02:41:34;1;1;
64627;PMS5003;59036;50.960;0.314;2022-09-09T02:44:05;4;3;
64627;PMS5003;59036;50.960;0.314;2022-09-09T02:46:37;3;2;
64627;PMS5003;59036;50.960;0.314;2022-09-09T02:49:16;4;4;
64627;PMS5003;59036;50.960;0.314;2022-09-09T02:51:51;2;2;
64627;PMS5003;59036;50.960;0.314;2022-09-09T02:54:27;2;2;
64627;PMS5003;59036;50.960;0.314;2022-09-09T02:56:55;5;4;
64627;PMS5003;59036;50.960;0.314;2022-09-09T02:59:26;3;3;
64627;PMS5003;59036;50.960;0.314;2022-09-09T03:01:53;3;3;
64627;PMS5003;59036;50.960;0.314;2022-09-09T03:04:20;4;4;
64627;PMS5003;59036;50.960;0.314;2022-09-09T03:06:47;3;3;
64627;PMS5003;59036;50.960;0.314;2022-09-09T03:09:14;6;4;
64627;PMS5003;59036;50.960;0.314;2022-09-09T03:11:42;7;5;
64627;PMS5003;59036;50.960;0.314;2022-09-09T03:14:09;4;4;
64627;PMS5003;59036;50.960;0.314;2022-09-09T03:16:36;7;7;
64627;PMS5003;59036;50.960;0.314;2022-09-09T03:19:03;5;5;
64627;PMS5003;59036;50.960;0.314;2022-09-09T03:21:30;4;4;
64627;PMS5003;59036;50.960;0.314;2022-09-09T03:23:57;5;4;
64627;PMS5003;59036;50.960;0.314;2022-09-09T03:26:24;5;5;
64627;PMS5003;59036;50.960;0.314;2022-09-09T03:28:51;9;9;
64627;PMS5003;59036;50.960;0.314;2022-09-09T03:31:18;5;5;
64627;PMS5003;59036;50.960;0.314;2022-09-09T03:33:45;4;3;
64627;PMS5003;59036;50.960;0.314;2022-09-09T03:36:12;8;7;
64627;PMS5003;59036;50.960;0.314;2022-09-09T03:38:40;5;5;
64627;PMS5003;59036;50.960;0.314;2022-09-09T03:41:07;7;6;
64627;PMS5003;59036;50.960;0.314;2022-09-09T03:43:34;6;5;
64627;PMS5003;59036;50.960;0.314;2022-09-09T03:46:01;5;4;
64627;PMS5003;59036;50.960;0.314;2022-09-09T03:48:28;10;7;
64627;PMS5003;59036;50.960;0.314;2022-09-09T03:50:56;7;7;
64627;PMS5003;59036;50.960;0.314;2022-09-09T03:53:23;6;6;
64627;PMS5003;59036;50.960;0.314;2022-09-09T03:55:51;8;8;
64627;PMS5003;59036;50.960;0.314;2022-09-09T03:58:20;8;7;
64627;PMS5003;59036;50.960;0.314;2022-09-09T04:00:52;7;7;
64627;PMS5003;59036;50.960;0.314;2022-09-09T04:03:20;10;10;
64627;PMS5003;59036;50.960;0.314;2022-09-09T04:05:48;6;5;
64627;PMS5003;59036;50.960;0.314;2022-09-09T04:08:15;8;7;
64627;PMS5003;59036;50.960;0.314;2022-09-09T04:10:44;8;8;
64627;PMS5003;59036;50.960;0.314;2022-09-09T04:13:11;10;10;
64627;PMS5003;59036;50.960;0.314;2022-09-09T04:15:38;9;9;
64627;PMS5003;59036;50.960;0.314;2022-09-09T04:18:05;9;7;
64627;PMS5003;59036;50.960;0.314;2022-09-09T04:20:32;7;7;
64627;PMS5003;59036;50.960;0.314;2022-09-09T04:22:59;8;7;
64627;PMS5003;59036;50.960;0.314;2022-09-09T04:25:26;11;11;
64627;PMS5003;59036;50.960;0.314;2022-09-09T04:27:54;9;8;
64627;PMS5003;59036;50.960;0.314;2022-09-09T04:30:21;8;8;
64627;PMS5003;59036;50.960;0.314;2022-09-09T04:32:48;8;8;
64627;PMS5003;59036;50.960;0.314;2022-09-09T04:35:15;8;6;
64627;PMS5003;59036;50.960;0.314;2022-09-09T04:37:43;6;6;
64627;PMS5003;59036;50.960;0.314;2022-09-09T04:40:10;7;6;
64627;PMS5003;59036;50.960;0.314;2022-09-09T04:42:37;6;6;
64627;PMS5003;59036;50.960;0.314;2022-09-09T04:45:05;8;8;
64627;PMS5003;59036;50.960;0.314;2022-09-09T04:47:32;7;7;
64627;PMS5003;59036;50.960;0.314;2022-09-09T04:50:00;7;6;
64627;PMS5003;59036;50.960;0.314;2022-09-09T04:52:27;5;5;
64627;PMS5003;59036;50.960;0.314;2022-09-09T04:54:54;7;7;
64627;PMS5003;59036;50.960;0.314;2022-09-09T04:57:21;8;7;
64627;PMS5003;59036;50.960;0.314;2022-09-09T04:59:48;7;7;
64627;PMS5003;59036;50.960;0.314;2022-09-09T05:02:15;6;6;
64627;PMS5003;59036;50.960;0.314;2022-09-09T05:04:42;5;5;
64627;PMS5003;59036;50.960;0.314;2022-09-09T05:07:09;6;5;
64627;PMS5003;59036;50.960;0.314;2022-09-09T05:09:36;6;6;
64627;PMS5003;59036;50.960;0.314;2022-09-09T05:12:04;5;5;
64627;PMS5003;59036;50.960;0.314;2022-09-09T05:14:31;7;6;
64627;PMS5003;59036;50.960;0.314;2022-09-09T05:16:58;6;6;
64627;PMS5003;59036;50.960;0.314;2022-09-09T05:19:25;7;5;
64627;PMS5003;59036;50.960;0.314;2022-09-09T05:21:52;6;5;
64627;PMS5003;59036;50.960;0.314;2022-09-09T05:24:19;7;7;
64627;PMS5003;59036;50.960;0.314;2022-09-09T05:26:46;6;6;
64627;PMS5003;59036;50.960;0.314;2022-09-09T05:29:13;5;5;
64627;PMS5003;59036;50.960;0.314;2022-09-09T05:31:41;5;5;
64627;PMS5003;59036;50.960;0.314;2022-09-09T05:34:08;8;8;
64627;PMS5003;59036;50.960;0.314;2022-09-09T05:36:35;9;8;
64627;PMS5003;59036;50.960;0.314;2022-09-09T05:39:02;9;8;
64627;PMS5003;59036;50.960;0.314;2022-09-09T05:41:29;10;9;
64627;PMS5003;59036;50.960;0.314;2022-09-09T05:43:56;6;6;
64627;PMS5003;59036;50.960;0.314;2022-09-09T05:46:24;7;7;
64627;PMS5003;59036;50.960;0.314;2022-09-09T05:48:51;7;6;
64627;PMS5003;59036;50.960;0.314;2022-09-09T05:51:19;7;7;
64627;PMS5003;59036;50.960;0.314;2022-09-09T05:53:48;7;7;
64627;PMS5003;59036;50.960;0.314;2022-09-09T05:56:16;10;10;
64627;PMS5003;59036;50.960;0.314;2022-09-09T05:58:46;9;9;
64627;PMS5003;59036;50.960;0.314;2022-09-09T06:01:15;7;7;
64627;PMS5003;59036;50.960;0.314;2022-09-09T06:03:44;11;11;
64627;PMS5003;59036;50.960;0.314;2022-09-09T06:06:12;10;8;
64627;PMS5003;59036;50.960;0.314;2022-09-09T06:08:41;8;8;
64627;PMS5003;59036;50.960;0.314;2022-09-09T06:11:10;10;10;
64627;PMS5003;59036;50.960;0.314;2022-09-09T06:13:38;8;8;
64627;PMS5003;59036;50.960;0.314;2022-09-09T06:16:06;8;8;
64627;PMS5003;59036;50.960;0.314;2022-09-09T06:18:36;9;9;
64627;PMS5003;59036;50.960;0.314;2022-09-09T06:21:04;8;8;
64627;PMS5003;59036;50.960;0.314;2022-09-09T06:23:33;8;8;
64627;PMS5003;59036;50.960;0.314;2022-09-09T06:26:01;9;9;
64627;PMS5003;59036;50.960;0.314;2022-09-09T06:28:29;8;8;
64627;PMS5003;59036;50.960;0.314;2022-09-09T06:30:57;9;9;
64627;PMS5003;59036;50.960;0.314;2022-09-09T06:33:25;10;10;
64627;PMS5003;59036;50.960;0.314;2022-09-09T06:35:53;9;8;
64627;PMS5003;59036;50.960;0.314;2022-09-09T06:38:20;6;6;
64627;PMS5003;59036;50.960;0.314;2022-09-09T06:40:50;7;7;
64627;PMS5003;59036;50.960;0.314;2022-09-09T06:43:18;5;5;
64627;PMS5003;59036;50.960;0.314;2022-09-09T06:45:52;8;8;
64627;PMS5003;59036;50.960;0.314;2022-09-09T06:48:20;11;11;
64627;PMS5003;59036;50.960;0.314;2022-09-09T06:50:47;10;9;
64627;PMS5003;59036;50.960;0.314;2022-09-09T06:53:15;10;10;
64627;PMS5003;59036;50.960;0.314;2022-09-09T06:55:43;12;12;
64627;PMS5003;59036;50.960;0.314;2022-09-09T06:58:10;9;9;
64627;PMS5003;59036;50.960;0.314;2022-09-09T07:00:36;9;9;
64627;PMS5003;59036;50.960;0.314;2022-09-09T07:03:03;9;9;
64627;PMS5003;59036;50.960;0.314;2022-09-09T07:05:31;12;10;
64627;PMS5003;59036;50.960;0.314;2022-09-09T07:07:57;11;11;
64627;PMS5003;59036;50.960;0.314;2022-09-09T07:10:25;10;10;
64627;PMS5003;59036;50.960;0.314;2022-09-09T07:12:52;9;9;
64627;PMS5003;59036;50.960;0.314;2022-09-09T07:15:20;9;9;
64627;PMS5003;59036;50.960;0.314;2022-09-09T07:17:46;12;12;
64627;PMS5003;59036;50.960;0.314;2022-09-09T07:20:14;12;10;
64627;PMS5003;59036;50.960;0.314;2022-09-09T07:22:41;11;10;
64627;PMS5003;59036;50.960;0.314;2022-09-09T07:25:08;13;12;
64627;PMS5003;59036;50.960;0.314;2022-09-09T07:27:35;8;8;
64627;PMS5003;59036;50.960;0.314;2022-09-09T07:30:02;10;10;
64627;PMS5003;59036;50.960;0.314;2022-09-09T07:32:30;11;11;
64627;PMS5003;59036;50.960;0.314;2022-09-09T07:34:57;12;11;
64627;PMS5003;59036;50.960;0.314;2022-09-09T07:37:24;10;10;
64627;PMS5003;59036;50.960;0.314;2022-09-09T07:39:51;13;13;
64627;PMS5003;59036;50.960;0.314;2022-09-09T07:42:18;11;11;
64627;PMS5003;59036;50.960;0.314;2022-09-09T07:44:45;10;10;
64627;PMS5003;59036;50.960;0.314;2022-09-09T07:47:12;11;11;
64627;PMS5003;59036;50.960;0.314;2022-09-09T07:49:39;11;11;
64627;PMS5003;59036;50.960;0.314;2022-09-09T07:52:06;11;11;
64627;PMS5003;59036;50.960;0.314;2022-09-09T07:54:33;11;11;
64627;PMS5003;59036;50.960;0.314;2022-09-09T07:57:00;11;11;
64627;PMS5003;59036;50.960;0.314;2022-09-09T07:59:27;11;11;
64627;PMS5003;59036;50.960;0.314;2022-09-09T08:01:54;10;10;
64627;PMS5003;59036;50.960;0.314;2022-09-09T08:04:22;13;11;
64627;PMS5003;59036;50.960;0.314;2022-09-09T08:06:51;10;9;
64627;PMS5003;59036;50.960;0.314;2022-09-09T08:09:20;9;9;
64627;PMS5003;59036;50.960;0.314;2022-09-09T08:11:47;11;11;
64627;PMS5003;59036;50.960;0.314;2022-09-09T08:14:14;10;10;
64627;PMS5003;59036;50.960;0.314;2022-09-09T08:16:42;11;11;
64627;PMS5003;59036;50.960;0.314;2022-09-09T08:19:10;9;9;
64627;PMS5003;59036;50.960;0.314;2022-09-09T08:21:39;12;12;
64627;PMS5003;59036;50.960;0.314;2022-09-09T08:24:07;12;12;
64627;PMS5003;59036;50.960;0.314;2022-09-09T08:26:36;12;12;
64627;PMS5003;59036;50.960;0.314;2022-09-09T08:29:04;10;10;
64627;PMS5003;59036;50.960;0.314;2022-09-09T08:31:33;11;11;
64627;PMS5003;59036;50.960;0.314;2022-09-09T08:34:02;10;10;
64627;PMS5003;59036;50.960;0.314;2022-09-09T08:36:29;11;11;
64627;PMS5003;59036;50.960;0.314;2022-09-09T08:38:58;18;17;
64627;PMS5003;59036;50.960;0.314;2022-09-09T08:41:30;27;26;
64627;PMS5003;59036;50.960;0.314;2022-09-09T08:44:10;41;39;
64627;PMS5003;59036;50.960;0.314;2022-09-09T08:46:46;42;41;
64627;PMS5003;59036;50.960;0.314;2022-09-09T08:49:31;29;27;
64627;PMS5003;59036;50.960;0.314;2022-09-09T08:52:15;16;16;
64627;PMS5003;59036;50.960;0.314;2022-09-09T08:54:46;16;16;
64627;PMS5003;59036;50.960;0.314;2022-09-09T08:57:14;16;16;
64627;PMS5003;59036;50.960;0.314;2022-09-09T08:59:48;10;10;
64627;PMS5003;59036;50.960;0.314;2022-09-09T09:02:17;10;10;
64627;PMS5003;59036;50.960;0.314;2022-09-09T09:04:54;11;11;
64627;PMS5003;59036;50.960;0.314;2022-09-09T09:07:35;10;9;
64627;PMS5003;59036;50.960;0.314;2022-09-09T09:10:12;11;10;
64627;PMS5003;59036;50.960;0.314;2022-09-09T09:12:47;11;9;
64627;PMS5003;59036;50.960;0.314;2022-09-09T09:15:16;10;10;
64627;PMS5003;59036;50.960;0.314;2022-09-09T09:17:47;8;8;
64627;PMS5003;59036;50.960;0.314;2022-09-09T09:20:15;10;9;
64627;PMS5003;59036;50.960;0.314;2022-09-09T09:22:47;13;13;
64627;PMS5003;59036;50.960;0.314;2022-09-09T09:25:17;12;12;
64627;PMS5003;59036;50.960;0.314;2022-09-09T09:27:49;17;16;
64627;PMS5003;59036;50.960;0.314;2022-09-09T09:30:24;16;16;
64627;PMS5003;59036;50.960;0.314;2022-09-09T09:32:58;12;11;
64627;PMS5003;59036;50.960;0.314;2022-09-09T09:35:29;12;11;
64627;PMS5003;59036;50.960;0.314;2022-09-09T09:37:56;10;10;
64627;PMS5003;59036;50.960;0.314;2022-09-09T09:40:23;11;11;
64627;PMS5003;59036;50.960;0.314;2022-09-09T09:42:51;12;12;
64627;PMS5003;59036;50.960;0.314;2022-09-09T09:45:26;33;33;
64627;PMS5003;59036;50.960;0.314;2022-09-09T09:47:59;20;19;
64627;PMS5003;59036;50.960;0.314;2022-09-09T09:50:28;10;10;
64627;PMS5003;59036;50.960;0.314;2022-09-09T09:52:56;13;13;
64627;PMS5003;59036;50.960;0.314;2022-09-09T09:55:26;10;10;
64627;PMS5003;59036;50.960;0.314;2022-09-09T09:58:01;11;11;
64627;PMS5003;59036;50.960;0.314;2022-09-09T10:00:29;9;9;
64627;PMS5003;59036;50.960;0.314;2022-09-09T10:02:56;13;13;
64627;PMS5003;59036;50.960;0.314;2022-09-09T10:05:25;13;13;
64627;PMS5003;59036;50.960;0.314;2022-09-09T10:08:02;11;10;
64627;PMS5003;59036;50.960;0.314;2022-09-09T10:10:35;13;13;
64627;PMS5003;59036;50.960;0.314;2022-09-09T10:13:11;12;11;
64627;PMS5003;59036;50.960;0.314;2022-09-09T10:15:46;9;9;
64627;PMS5003;59036;50.960;0.314;2022-09-09T10:18:31;14;13;
64627;PMS5003;59036;50.960;0.314;2022-09-09T10:21:12;13;13;
64627;PMS5003;59036;50.960;0.314;2022-09-09T10:23:52;11;11;
64627;PMS5003;59036;50.960;0.314;2022-09-09T10:26:34;13;12;
64627;PMS5003;59036;50.960;0.314;2022-09-09T10:29:13;11;11;
64627;PMS5003;59036;50.960;0.314;2022-09-09T10:31:56;13;13;
64627;PMS5003;59036;50.960;0.314;2022-09-09T10:34:42;12;12;
64627;PMS5003;59036;50.960;0.314;2022-09-09T10:37:29;12;11;
64627;PMS5003;59036;50.960;0.314;2022-09-09T10:40:17;12;12;
64627;PMS5003;59036;50.960;0.314;2022-09-09T10:42:53;10;10;
64627;PMS5003;59036;50.960;0.314;2022-09-09T10:45:27;12;12;
64627;PMS5003;59036;50.960;0.314;2022-09-09T10:48:04;8;8;
64627;PMS5003;59036;50.960;0.314;2022-09-09T10:50:51;9;8;
64627;PMS5003;59036;50.960;0.314;2022-09-09T10:53:27;10;10;
64627;PMS5003;59036;50.960;0.314;2022-09-09T10:56:04;8;7;
64627;PMS5003;59036;50.960;0.314;2022-09-09T10:58:36;13;12;
64627;PMS5003;59036;50.960;0.314;2022-09-09T11:01:09;8;8;
64627;PMS5003;59036;50.960;0.314;2022-09-09T11:03:42;10;10;
64627;PMS5003;59036;50.960;0.314;2022-09-09T11:06:14;14;13;
64627;PMS5003;59036;50.960;0.314;2022-09-09T11:08:45;12;12;
64627;PMS5003;59036;50.960;0.314;2022-09-09T11:11:13;9;8;
64627;PMS5003;59036;50.960;0.314;2022-09-09T11:13:46;8;8;
64627;PMS5003;59036;50.960;0.314;2022-09-09T11:16:21;11;10;
64627;PMS5003;59036;50.960;0.314;2022-09-09T11:18:54;10;10;
64627;PMS5003;59036;50.960;0.314;2022-09-09T11:21:25;10;10;
64627;PMS5003;59036;50.960;0.314;2022-09-09T11:23:56;10;10;
64627;PMS5003;59036;50.960;0.314;2022-09-09T11:26:30;10;8;
64627;PMS5003;59036;50.960;0.314;2022-09-09T11:29:06;10;10;
64627;PMS5003;59036;50.960;0.314;2022-09-09T11:31:52;7;7;
64627;PMS5003;59036;50.960;0.314;2022-09-09T11:34:37;6;6;
64627;PMS5003;59036;50.960;0.314;2022-09-09T11:37:26;9;9;
64627;PMS5003;59036;50.960;0.314;2022-09-09T11:40:14;10;10;
64627;PMS5003;59036;50.960;0.314;2022-09-09T11:42:45;9;8;
64627;PMS5003;59036;50.960;0.314;2022-09-09T11:45:19;7;7;
64627;PMS5003;59036;50.960;0.314;2022-09-09T11:47:51;6;5;
64627;PMS5003;59036;50.960;0.314;2022-09-09T11:50:40;7;7;
64627;PMS5003;59036;50.960;0.314;2022-09-09T11:53:23;9;9;
64627;PMS5003;59036;50.960;0.314;2022-09-09T11:56:08;7;6;
64627;PMS5003;59036;50.960;0.314;2022-09-09T11:58:38;4;4;
64627;PMS5003;59036;50.960;0.314;2022-09-09T12:01:16;5;5;
64627;PMS5003;59036;50.960;0.314;2022-09-09T12:03:59;4;4;
64627;PMS5003;59036;50.960;0.314;2022-09-09T12:06:41;5;4;
64627;PMS5003;59036;50.960;0.314;2022-09-09T12:09:15;5;4;
64627;PMS5003;59036;50.960;0.314;2022-09-09T12:11:48;3;3;
64627;PMS5003;59036;50.960;0.314;2022-09-09T12:14:23;3;3;
64627;PMS5003;59036;50.960;0.314;2022-09-09T12:17:09;2;2;
64627;PMS5003;59036;50.960;0.314;2022-09-09T12:19:44;2;2;
64627;PMS5003;59036;50.960;0.314;2022-09-09T12:22:13;1;1;
64627;PMS5003;59036;50.960;0.314;2022-09-09T12:24:49;3;3;
64627;PMS5003;59036;50.960;0.314;2022-09-09T12:27:25;1;1;
64627;PMS5003;59036;50.960;0.314;2022-09-09T12:29:59;3;3;
64627;PMS5003;59036;50.960;0.314;2022-09-09T12:32:29;3;3;
64627;PMS5003;59036;50.960;0.314;2022-09-09T12:34:57;3;3;
64627;PMS5003;59036;50.960;0.314;2022-09-09T12:37:29;3;3;
64627;PMS5003;59036;50.960;0.314;2022-09-09T12:40:02;3;3;
64627;PMS5003;59036;50.960;0.314;2022-09-09T12:42:31;3;3;
64627;PMS5003;59036;50.960;0.314;2022-09-09T12:44:58;3;3;
64627;PMS5003;59036;50.960;0.314;2022-09-09T12:47:29;1;1;
64627;PMS5003;59036;50.960;0.314;2022-09-09T12:50:10;3;3;
64627;PMS5003;59036;50.960;0.314;2022-09-09T12:52:42;3;3;
64627;PMS5003;59036;50.960;0.314;2022-09-09T12:55:14;2;2;
64627;PMS5003;59036;50.960;0.314;2022-09-09T12:57:44;4;4;
64627;PMS5003;59036;50.960;0.314;2022-09-09T13:00:14;3;3;
64627;PMS5003;59036;50.960;0.314;2022-09-09T13:02:47;1;1;
64627;PMS5003;59036;50.960;0.314;2022-09-09T13:05:18;1;1;
64627;PMS5003;59036;50.960;0.314;2022-09-09T13:07:48;2;2;
64627;PMS5003;59036;50.960;0.314;2022-09-09T13:10:19;3;3;
64627;PMS5003;59036;50.960;0.314;2022-09-09T13:12:52;1;1;
64627;PMS5003;59036;50.960;0.314;2022-09-09T13:15:21;1;1;
64627;PMS5003;59036;50.960;0.314;2022-09-09T13:17:51;2;2;
64627;PMS5003;59036;50.960;0.314;2022-09-09T13:20:20;3;3;
64627;PMS5003;59036;50.960;0.314;2022-09-09T13:22:49;1;1;
64627;PMS5003;59036;50.960;0.314;2022-09-09T13:25:20;4;4;
64627;PMS5003;59036;50.960;0.314;2022-09-09T13:27:52;3;3;
64627;PMS5003;59036;50.960;0.314;2022-09-09T13:30:22;3;3;
64627;PMS5003;59036;50.960;0.314;2022-09-09T13:33:29;4;4;
64627;PMS5003;59036;50.960;0.314;2022-09-09T13:35:58;2;2;
64627;PMS5003;59036;50.960;0.314;2022-09-09T13:38:27;4;4;
64627;PMS5003;59036;50.960;0.314;2022-09-09T13:40:57;5;5;
64627;PMS5003;59036;50.960;0.314;2022-09-09T13:43:26;3;3;
64627;PMS5003;59036;50.960;0.314;2022-09-09T13:45:55;4;4;
64627;PMS5003;59036;50.960;0.314;2022-09-09T13:48:25;3;3;
64627;PMS5003;59036;50.960;0.314;2022-09-09T13:50:54;4;4;
64627;PMS5003;59036;50.960;0.314;2022-09-09T13:53:23;3;2;
64627;PMS5003;59036;50.960;0.314;2022-09-09T13:55:50;2;2;
64627;PMS5003;59036;50.960;0.314;2022-09-09T13:58:17;6;6;
64627;PMS5003;59036;50.960;0.314;2022-09-09T14:00:45;7;7;
64627;PMS5003;59036;50.960;0.314;2022-09-09T14:03:12;23;23;
64627;PMS5003;59036;50.960;0.314;2022-09-09T14:05:39;5;5;
64627;PMS5003;59036;50.960;0.314;2022-09-09T14:08:07;6;6;
64627;PMS5003;59036;50.960;0.314;2022-09-09T14:10:41;7;7;
64627;PMS5003;59036;50.960;0.314;2022-09-09T14:13:08;8;8;
64627;PMS5003;59036;50.960;0.314;2022-09-09T14:15:35;8;8;
64627;PMS5003;59036;50.960;0.314;2022-09-09T14:18:02;7;7;
64627;PMS5003;59036;50.960;0.314;2022-09-09T14:20:35;6;5;
64627;PMS5003;59036;50.960;0.314;2022-09-09T14:23:02;5;4;
64627;PMS5003;59036;50.960;0.314;2022-09-09T14:25:29;5;5;
64627;PMS5003;59036;50.960;0.314;2022-09-09T14:27:56;4;4;
64627;PMS5003;59036;50.960;0.314;2022-09-09T14:30:23;6;5;
64627;PMS5003;59036;50.960;0.314;2022-09-09T14:32:50;5;5;
64627;PMS5003;59036;50.960;0.314;2022-09-09T14:35:17;4;4;
64627;PMS5003;59036;50.960;0.314;2022-09-09T14:37:44;6;6;
64627;PMS5003;59036;50.960;0.314;2022-09-09T14:40:11;6;6;
64627;PMS5003;59036;50.960;0.314;2022-09-09T14:42:38;7;7;
64627;PMS5003;59036;50.960;0.314;2022-09-09T14:45:06;7;7;
64627;PMS5003;59036;50.960;0.314;2022-09-09T14:47:33;4;4;
64627;PMS5003;59036;50.960;0.314;2022-09-09T14:50:00;7;6;
64627;PMS5003;59036;50.960;0.314;2022-09-09T14:52:27;4;4;
64627;PMS5003;59036;50.960;0.314;2022-09-09T14:55:06;4;4;
64627;PMS5003;59036;50.960;0.314;2022-09-09T14:57:34;4;4;
64627;PMS5003;59036;50.960;0.314;2022-09-09T15:00:01;3;3;
64627;PMS5003;59036;50.960;0.314;2022-09-09T15:02:29;4;3;
64627;PMS5003;59036;50.960;0.314;2022-09-09T15:04:56;4;4;
64627;PMS5003;59036;50.960;0.314;2022-09-09T15:07:23;5;5;
64627;PMS5003;59036;50.960;0.314;2022-09-09T15:09:51;3;3;
64627;PMS5003;59036;50.960;0.314;2022-09-09T15:12:18;2;2;
64627;PMS5003;59036;50.960;0.314;2022-09-09T15:14:45;3;3;
64627;PMS5003;59036;50.960;0.314;2022-09-09T15:17:12;4;4;
64627;PMS5003;59036;50.960;0.314;2022-09-09T15:19:40;4;4;
64627;PMS5003;59036;50.960;0.314;2022-09-09T15:22:07;3;3;
64627;PMS5003;59036;50.960;0.314;2022-09-09T15:24:34;5;5;
64627;PMS5003;59036;50.960;0.314;2022-09-09T15:27:02;4;4;
64627;PMS5003;59036;50.960;0.314;2022-09-09T15:29:30;5;4;
64627;PMS5003;59036;50.960;0.314;2022-09-09T15:31:57;4;4;
64627;PMS5003;59036;50.960;0.314;2022-09-09T15:34:24;3;3;
64627;PMS5003;59036;50.960;0.314;2022-09-09T15:36:51;3;2;
64627;PMS5003;59036;50.960;0.314;2022-09-09T15:39:17;2;2;
64627;PMS5003;59036;50.960;0.314;2022-09-09T15:41:45;2;2;
64627;PMS5003;59036;50.960;0.314;2022-09-09T15:44:13;2;2;
64627;PMS5003;59036;50.960;0.314;2022-09-09T15:46:42;2;2;
64627;PMS5003;59036;50.960;0.314;2022-09-09T15:49:11;2;2;
64627;PMS5003;59036;50.960;0.314;2022-09-09T15:51:40;1;1;
64627;PMS5003;59036;50.960;0.314;2022-09-09T15:54:09;2;2;
64627;PMS5003;59036;50.960;0.314;2022-09-09T15:56:37;2;2;
64627;PMS5003;59036;50.960;0.314;2022-09-09T15:59:05;4;3;
64627;PMS5003;59036;50.960;0.314;2022-09-09T16:01:32;2;2;
64627;PMS5003;59036;50.960;0.314;2022-09-09T16:04:00;3;3;
64627;PMS5003;59036;50.960;0.314;2022-09-09T16:06:29;2;2;
64627;PMS5003;59036;50.960;0.314;2022-09-09T16:08:57;3;3;
64627;PMS5003;59036;50.960;0.314;2022-09-09T16:11:26;2;2;
64627;PMS5003;59036;50.960;0.314;2022-09-09T16:13:54;3;2;
64627;PMS5003;59036;50.960;0.314;2022-09-09T16:16:23;2;2;
64627;PMS5003;59036;50.960;0.314;2022-09-09T16:18:52;2;2;
64627;PMS5003;59036;50.960;0.314;2022-09-09T16:21:22;2;2;
64627;PMS5003;59036;50.960;0.314;2022-09-09T16:23:51;0;0;
64627;PMS5003;59036;50.960;0.314;2022-09-09T16:26:19;2;2;
64627;PMS5003;59036;50.960;0.314;2022-09-09T16:28:46;2;2;
64627;PMS5003;59036;50.960;0.314;2022-09-09T16:31:15;1;1;
64627;PMS5003;59036;50.960;0.314;2022-09-09T16:33:43;1;1;
64627;PMS5003;59036;50.960;0.314;2022-09-09T16:36:11;2;2;
64627;PMS5003;59036;50.960;0.314;2022-09-09T16:38:44;3;3;
64627;PMS5003;59036;50.960;0.314;2022-09-09T16:41:12;3;1;
64627;PMS5003;59036;50.960;0.314;2022-09-09T16:43:40;2;2;
64627;PMS5003;59036;50.960;0.314;2022-09-09T16:46:11;0;0;
64627;PMS5003;59036;50.960;0.314;2022-09-09T16:48:39;2;2;
64627;PMS5003;59036;50.960;0.314;2022-09-09T16:51:07;2;2;
64627;PMS5003;59036;50.960;0.314;2022-09-09T16:53:36;4;3;
64627;PMS5003;59036;50.960;0.314;2022-09-09T16:56:04;3;2;
64627;PMS5003;59036;50.960;0.314;2022-09-09T16:58:32;3;3;
64627;PMS5003;59036;50.960;0.314;2022-09-09T17:00:59;5;5;
64627;PMS5003;59036;50.960;0.314;2022-09-09T17:03:26;5;4;
64627;PMS5003;59036;50.960;0.314;2022-09-09T17:05:53;3;3;